Fort Russell, Illinois
Current Conditions -  °F | °C
As of 2:50 PM on Thursday 23 Oct 2014 (Local Time) from KALN Reporting Station
Broken Clouds Broken Clouds  
Wind Chill: 16°   Ceiling: 15000
Heat Index: 16°   Visibility: 10mi
Dew Point:   Wind: 6mph
Humidity: 45%   Direction: 190°S
Pressure: 30.13"   Gusts: NA
Location:  38.9045°N, 90.0089°W
Report Text: KALN 231950Z 19005KT 10SM BKN150 16/04 A3013
Loading
Personal Weather Stations






























Interactive Weather Map
Tropical Storm Tracking
New forecast layout! Learn more

10-Day Weather Forecast

Advertisements
Track Severe Weather on mobile